Terminal Aerodrome Forecast
Issued by NWS

Home | Current Version | Previous Version | Text Only | Print | Product List | Glossary On
Versions: 1 2 3 4 5 6 7 8 9 10 11 12 13 14 15 16 17 18
000
FTUS45 KREV 080529
TAFMMH
TAF
KMMH 080529Z 0806/0906 VRB04KT P6SM SCT120
     FM081800 12010KT P6SM VCTS SCT040CB BKN060 PROB30 0819/0822
      VRB30KT 3SM TSRA BR BKN050CB
     FM082300 28014KT P6SM VCSH BKN070=

USA.gov is the U.S. government's official web portal to all federal, state and local government web resources and services.